sensor_id;sensor_type;location;lat;lon;timestamp;P1;durP1;ratioP1;P2;durP2;ratioP2
54428;SDS011;40337;52.978;6.310;2023-07-13T00:02:14;10.60;;;2.78;;
54428;SDS011;40337;52.978;6.310;2023-07-13T00:04:40;11.00;;;3.13;;
54428;SDS011;40337;52.978;6.310;2023-07-13T00:07:07;10.45;;;3.20;;
54428;SDS011;40337;52.978;6.310;2023-07-13T00:09:33;10.07;;;2.90;;
54428;SDS011;40337;52.978;6.310;2023-07-13T00:11:59;7.97;;;2.70;;
54428;SDS011;40337;52.978;6.310;2023-07-13T00:14:25;9.98;;;3.22;;
54428;SDS011;40337;52.978;6.310;2023-07-13T00:16:52;7.85;;;3.03;;
54428;SDS011;40337;52.978;6.310;2023-07-13T00:19:18;9.00;;;3.33;;
54428;SDS011;40337;52.978;6.310;2023-07-13T00:21:44;10.63;;;3.08;;
54428;SDS011;40337;52.978;6.310;2023-07-13T00:24:11;11.27;;;3.10;;
54428;SDS011;40337;52.978;6.310;2023-07-13T00:26:38;9.60;;;3.08;;
54428;SDS011;40337;52.978;6.310;2023-07-13T00:29:04;11.30;;;3.38;;
54428;SDS011;40337;52.978;6.310;2023-07-13T00:31:34;9.77;;;3.38;;
54428;SDS011;40337;52.978;6.310;2023-07-13T00:34:00;9.52;;;3.03;;
54428;SDS011;40337;52.978;6.310;2023-07-13T00:36:26;10.57;;;3.70;;
54428;SDS011;40337;52.978;6.310;2023-07-13T00:38:52;10.98;;;3.42;;
54428;SDS011;40337;52.978;6.310;2023-07-13T00:41:18;11.00;;;3.45;;
54428;SDS011;40337;52.978;6.310;2023-07-13T00:43:44;9.75;;;3.58;;
54428;SDS011;40337;52.978;6.310;2023-07-13T00:46:20;20.08;;;4.22;;
54428;SDS011;40337;52.978;6.310;2023-07-13T00:48:51;12.65;;;3.97;;
54428;SDS011;40337;52.978;6.310;2023-07-13T00:51:22;12.98;;;3.85;;
54428;SDS011;40337;52.978;6.310;2023-07-13T00:53:51;9.10;;;3.70;;
54428;SDS011;40337;52.978;6.310;2023-07-13T00:56:19;10.27;;;3.80;;
54428;SDS011;40337;52.978;6.310;2023-07-13T00:58:44;12.13;;;3.75;;
54428;SDS011;40337;52.978;6.310;2023-07-13T01:01:11;13.05;;;3.72;;
54428;SDS011;40337;52.978;6.310;2023-07-13T01:03:38;8.25;;;3.38;;
54428;SDS011;40337;52.978;6.310;2023-07-13T01:06:05;11.45;;;3.67;;
54428;SDS011;40337;52.978;6.310;2023-07-13T01:08:31;10.73;;;3.95;;
54428;SDS011;40337;52.978;6.310;2023-07-13T01:10:58;9.50;;;3.70;;
54428;SDS011;40337;52.978;6.310;2023-07-13T01:13:24;14.32;;;4.10;;
54428;SDS011;40337;52.978;6.310;2023-07-13T01:15:50;16.45;;;4.20;;
54428;SDS011;40337;52.978;6.310;2023-07-13T01:18:21;14.43;;;4.25;;
54428;SDS011;40337;52.978;6.310;2023-07-13T01:20:59;13.20;;;4.35;;
54428;SDS011;40337;52.978;6.310;2023-07-13T01:23:27;15.00;;;3.85;;
54428;SDS011;40337;52.978;6.310;2023-07-13T01:25:53;12.70;;;4.55;;
54428;SDS011;40337;52.978;6.310;2023-07-13T01:28:20;14.55;;;4.40;;
54428;SDS011;40337;52.978;6.310;2023-07-13T01:30:47;12.90;;;4.30;;
54428;SDS011;40337;52.978;6.310;2023-07-13T01:33:14;12.35;;;4.43;;
54428;SDS011;40337;52.978;6.310;2023-07-13T01:35:41;12.50;;;4.65;;
54428;SDS011;40337;52.978;6.310;2023-07-13T01:38:08;12.35;;;4.10;;
54428;SDS011;40337;52.978;6.310;2023-07-13T01:40:34;11.13;;;4.28;;
54428;SDS011;40337;52.978;6.310;2023-07-13T01:43:01;16.00;;;4.47;;
54428;SDS011;40337;52.978;6.310;2023-07-13T01:45:27;13.68;;;4.28;;
54428;SDS011;40337;52.978;6.310;2023-07-13T01:47:53;13.68;;;4.53;;
54428;SDS011;40337;52.978;6.310;2023-07-13T01:50:19;12.73;;;4.50;;
54428;SDS011;40337;52.978;6.310;2023-07-13T01:52:45;10.25;;;4.10;;
54428;SDS011;40337;52.978;6.310;2023-07-13T01:55:10;14.10;;;4.38;;
54428;SDS011;40337;52.978;6.310;2023-07-13T01:57:36;12.85;;;4.60;;
54428;SDS011;40337;52.978;6.310;2023-07-13T02:00:03;9.43;;;4.47;;
54428;SDS011;40337;52.978;6.310;2023-07-13T02:02:30;10.93;;;3.95;;
54428;SDS011;40337;52.978;6.310;2023-07-13T02:04:56;14.50;;;4.18;;
54428;SDS011;40337;52.978;6.310;2023-07-13T02:07:22;12.57;;;4.32;;
54428;SDS011;40337;52.978;6.310;2023-07-13T02:09:47;12.80;;;3.70;;
54428;SDS011;40337;52.978;6.310;2023-07-13T02:12:13;10.07;;;3.67;;
54428;SDS011;40337;52.978;6.310;2023-07-13T02:14:39;11.38;;;3.95;;
54428;SDS011;40337;52.978;6.310;2023-07-13T02:17:05;9.57;;;3.80;;
54428;SDS011;40337;52.978;6.310;2023-07-13T02:19:31;11.35;;;3.70;;
54428;SDS011;40337;52.978;6.310;2023-07-13T02:21:57;11.63;;;3.45;;
54428;SDS011;40337;52.978;6.310;2023-07-13T02:24:23;11.00;;;3.85;;
54428;SDS011;40337;52.978;6.310;2023-07-13T02:26:48;9.77;;;3.72;;
54428;SDS011;40337;52.978;6.310;2023-07-13T02:29:14;9.88;;;3.60;;
54428;SDS011;40337;52.978;6.310;2023-07-13T02:31:40;9.00;;;3.42;;
54428;SDS011;40337;52.978;6.310;2023-07-13T02:34:06;10.30;;;3.47;;
54428;SDS011;40337;52.978;6.310;2023-07-13T02:36:32;9.13;;;3.33;;
54428;SDS011;40337;52.978;6.310;2023-07-13T02:39:00;9.00;;;3.38;;
54428;SDS011;40337;52.978;6.310;2023-07-13T02:41:27;9.63;;;3.65;;
54428;SDS011;40337;52.978;6.310;2023-07-13T02:43:53;10.38;;;3.38;;
54428;SDS011;40337;52.978;6.310;2023-07-13T02:46:19;14.07;;;3.28;;
54428;SDS011;40337;52.978;6.310;2023-07-13T02:48:45;10.38;;;3.50;;
54428;SDS011;40337;52.978;6.310;2023-07-13T02:51:11;8.93;;;3.30;;
54428;SDS011;40337;52.978;6.310;2023-07-13T02:53:37;10.80;;;3.40;;
54428;SDS011;40337;52.978;6.310;2023-07-13T02:56:03;11.85;;;3.60;;
54428;SDS011;40337;52.978;6.310;2023-07-13T02:58:30;7.93;;;3.35;;
54428;SDS011;40337;52.978;6.310;2023-07-13T03:00:55;11.52;;;3.60;;
54428;SDS011;40337;52.978;6.310;2023-07-13T03:03:22;11.98;;;3.80;;
54428;SDS011;40337;52.978;6.310;2023-07-13T03:05:57;11.45;;;3.50;;
54428;SDS011;40337;52.978;6.310;2023-07-13T03:08:25;9.35;;;3.47;;
54428;SDS011;40337;52.978;6.310;2023-07-13T03:10:58;14.43;;;4.22;;
54428;SDS011;40337;52.978;6.310;2023-07-13T03:13:25;10.07;;;3.70;;
54428;SDS011;40337;52.978;6.310;2023-07-13T03:15:51;11.18;;;3.88;;
54428;SDS011;40337;52.978;6.310;2023-07-13T03:18:17;10.48;;;3.70;;
54428;SDS011;40337;52.978;6.310;2023-07-13T03:20:42;13.77;;;4.18;;
54428;SDS011;40337;52.978;6.310;2023-07-13T03:23:08;9.88;;;3.60;;
54428;SDS011;40337;52.978;6.310;2023-07-13T03:25:34;10.80;;;3.95;;
54428;SDS011;40337;52.978;6.310;2023-07-13T03:28:00;13.45;;;4.40;;
54428;SDS011;40337;52.978;6.310;2023-07-13T03:30:25;12.95;;;3.97;;
54428;SDS011;40337;52.978;6.310;2023-07-13T03:32:51;11.05;;;4.47;;
54428;SDS011;40337;52.978;6.310;2023-07-13T03:35:17;11.65;;;4.57;;
54428;SDS011;40337;52.978;6.310;2023-07-13T03:37:43;12.35;;;4.30;;
54428;SDS011;40337;52.978;6.310;2023-07-13T03:40:08;12.13;;;4.18;;
54428;SDS011;40337;52.978;6.310;2023-07-13T03:42:35;13.30;;;4.88;;
54428;SDS011;40337;52.978;6.310;2023-07-13T03:45:00;10.80;;;4.47;;
54428;SDS011;40337;52.978;6.310;2023-07-13T03:47:26;13.20;;;4.57;;
54428;SDS011;40337;52.978;6.310;2023-07-13T03:49:52;11.77;;;4.45;;
54428;SDS011;40337;52.978;6.310;2023-07-13T03:52:18;10.48;;;4.43;;
54428;SDS011;40337;52.978;6.310;2023-07-13T03:54:44;12.27;;;4.50;;
54428;SDS011;40337;52.978;6.310;2023-07-13T03:57:09;10.50;;;4.53;;
54428;SDS011;40337;52.978;6.310;2023-07-13T03:59:35;15.98;;;4.80;;
54428;SDS011;40337;52.978;6.310;2023-07-13T04:02:01;11.05;;;4.20;;
54428;SDS011;40337;52.978;6.310;2023-07-13T04:04:29;11.45;;;4.40;;
54428;SDS011;40337;52.978;6.310;2023-07-13T04:06:56;14.27;;;4.88;;
54428;SDS011;40337;52.978;6.310;2023-07-13T04:09:23;13.98;;;5.05;;
54428;SDS011;40337;52.978;6.310;2023-07-13T04:11:49;10.77;;;4.93;;
54428;SDS011;40337;52.978;6.310;2023-07-13T04:14:15;11.98;;;4.35;;
54428;SDS011;40337;52.978;6.310;2023-07-13T04:16:41;16.77;;;4.68;;
54428;SDS011;40337;52.978;6.310;2023-07-13T04:19:08;11.77;;;4.10;;
54428;SDS011;40337;52.978;6.310;2023-07-13T04:21:35;11.60;;;4.55;;
54428;SDS011;40337;52.978;6.310;2023-07-13T04:24:02;13.63;;;4.38;;
54428;SDS011;40337;52.978;6.310;2023-07-13T04:26:29;11.43;;;4.88;;
54428;SDS011;40337;52.978;6.310;2023-07-13T04:28:55;15.38;;;4.68;;
54428;SDS011;40337;52.978;6.310;2023-07-13T04:31:21;10.63;;;3.97;;
54428;SDS011;40337;52.978;6.310;2023-07-13T04:33:48;13.77;;;4.65;;
54428;SDS011;40337;52.978;6.310;2023-07-13T04:36:15;13.40;;;4.35;;
54428;SDS011;40337;52.978;6.310;2023-07-13T04:38:41;15.73;;;4.63;;
54428;SDS011;40337;52.978;6.310;2023-07-13T04:41:07;11.80;;;4.18;;
54428;SDS011;40337;52.978;6.310;2023-07-13T04:43:34;9.52;;;3.80;;
54428;SDS011;40337;52.978;6.310;2023-07-13T04:46:04;11.65;;;4.38;;
54428;SDS011;40337;52.978;6.310;2023-07-13T04:48:31;13.13;;;4.60;;
54428;SDS011;40337;52.978;6.310;2023-07-13T04:50:57;10.27;;;4.15;;
54428;SDS011;40337;52.978;6.310;2023-07-13T04:53:24;13.27;;;4.18;;
54428;SDS011;40337;52.978;6.310;2023-07-13T04:55:50;10.50;;;4.10;;
54428;SDS011;40337;52.978;6.310;2023-07-13T04:58:16;10.75;;;4.30;;
54428;SDS011;40337;52.978;6.310;2023-07-13T05:00:42;12.45;;;4.10;;
54428;SDS011;40337;52.978;6.310;2023-07-13T05:03:08;9.77;;;3.92;;
54428;SDS011;40337;52.978;6.310;2023-07-13T05:05:33;12.48;;;4.25;;
54428;SDS011;40337;52.978;6.310;2023-07-13T05:07:59;9.30;;;4.10;;
54428;SDS011;40337;52.978;6.310;2023-07-13T05:10:25;11.85;;;4.10;;
54428;SDS011;40337;52.978;6.310;2023-07-13T05:12:51;9.98;;;3.88;;
54428;SDS011;40337;52.978;6.310;2023-07-13T05:15:16;10.00;;;4.63;;
54428;SDS011;40337;52.978;6.310;2023-07-13T05:17:46;13.07;;;4.00;;
54428;SDS011;40337;52.978;6.310;2023-07-13T05:20:12;12.18;;;3.85;;
54428;SDS011;40337;52.978;6.310;2023-07-13T05:22:38;9.40;;;3.95;;
54428;SDS011;40337;52.978;6.310;2023-07-13T05:25:05;10.77;;;4.15;;
54428;SDS011;40337;52.978;6.310;2023-07-13T05:27:31;9.23;;;3.72;;
54428;SDS011;40337;52.978;6.310;2023-07-13T05:29:57;9.25;;;3.88;;
54428;SDS011;40337;52.978;6.310;2023-07-13T05:32:23;9.93;;;3.90;;
54428;SDS011;40337;52.978;6.310;2023-07-13T05:34:48;10.93;;;4.50;;
54428;SDS011;40337;52.978;6.310;2023-07-13T05:37:14;9.38;;;3.33;;
54428;SDS011;40337;52.978;6.310;2023-07-13T05:39:40;11.15;;;3.80;;
54428;SDS011;40337;52.978;6.310;2023-07-13T05:42:06;9.40;;;3.55;;
54428;SDS011;40337;52.978;6.310;2023-07-13T05:44:31;10.98;;;4.00;;
54428;SDS011;40337;52.978;6.310;2023-07-13T05:46:57;11.73;;;3.88;;
54428;SDS011;40337;52.978;6.310;2023-07-13T05:49:23;14.27;;;3.75;;
54428;SDS011;40337;52.978;6.310;2023-07-13T05:51:48;10.82;;;3.40;;
54428;SDS011;40337;52.978;6.310;2023-07-13T05:54:14;10.88;;;3.95;;
54428;SDS011;40337;52.978;6.310;2023-07-13T05:56:40;9.10;;;3.55;;
54428;SDS011;40337;52.978;6.310;2023-07-13T05:59:06;9.52;;;3.30;;
54428;SDS011;40337;52.978;6.310;2023-07-13T06:01:31;10.20;;;3.00;;
54428;SDS011;40337;52.978;6.310;2023-07-13T06:03:57;8.70;;;3.40;;
54428;SDS011;40337;52.978;6.310;2023-07-13T06:06:23;8.27;;;3.15;;
54428;SDS011;40337;52.978;6.310;2023-07-13T06:08:49;10.70;;;3.30;;
54428;SDS011;40337;52.978;6.310;2023-07-13T06:11:18;9.15;;;3.08;;
54428;SDS011;40337;52.978;6.310;2023-07-13T06:13:46;8.75;;;2.95;;
54428;SDS011;40337;52.978;6.310;2023-07-13T06:16:12;7.57;;;2.80;;
54428;SDS011;40337;52.978;6.310;2023-07-13T06:18:39;8.05;;;2.78;;
54428;SDS011;40337;52.978;6.310;2023-07-13T06:21:09;8.38;;;2.47;;
54428;SDS011;40337;52.978;6.310;2023-07-13T06:23:37;7.22;;;2.72;;
54428;SDS011;40337;52.978;6.310;2023-07-13T06:26:04;7.45;;;2.75;;
54428;SDS011;40337;52.978;6.310;2023-07-13T06:28:30;9.52;;;2.80;;
54428;SDS011;40337;52.978;6.310;2023-07-13T06:31:00;7.72;;;2.78;;
54428;SDS011;40337;52.978;6.310;2023-07-13T06:33:26;8.18;;;2.60;;
54428;SDS011;40337;52.978;6.310;2023-07-13T06:35:52;8.05;;;3.13;;
54428;SDS011;40337;52.978;6.310;2023-07-13T06:38:19;6.68;;;2.70;;
54428;SDS011;40337;52.978;6.310;2023-07-13T06:40:45;10.38;;;2.90;;
54428;SDS011;40337;52.978;6.310;2023-07-13T06:43:11;9.07;;;2.70;;
54428;SDS011;40337;52.978;6.310;2023-07-13T06:45:41;7.22;;;2.55;;
54428;SDS011;40337;52.978;6.310;2023-07-13T06:48:08;8.75;;;2.70;;
54428;SDS011;40337;52.978;6.310;2023-07-13T06:50:34;8.73;;;2.90;;
54428;SDS011;40337;52.978;6.310;2023-07-13T06:52:59;8.18;;;2.90;;
54428;SDS011;40337;52.978;6.310;2023-07-13T06:55:25;7.15;;;2.60;;
54428;SDS011;40337;52.978;6.310;2023-07-13T06:57:51;7.65;;;2.70;;
54428;SDS011;40337;52.978;6.310;2023-07-13T07:00:17;6.75;;;2.25;;
54428;SDS011;40337;52.978;6.310;2023-07-13T07:02:43;7.82;;;2.80;;
54428;SDS011;40337;52.978;6.310;2023-07-13T07:05:09;7.38;;;2.40;;
54428;SDS011;40337;52.978;6.310;2023-07-13T07:07:34;7.97;;;2.38;;
54428;SDS011;40337;52.978;6.310;2023-07-13T07:10:00;6.30;;;2.05;;
54428;SDS011;40337;52.978;6.310;2023-07-13T07:12:26;8.48;;;2.70;;
54428;SDS011;40337;52.978;6.310;2023-07-13T07:14:52;6.80;;;2.30;;
54428;SDS011;40337;52.978;6.310;2023-07-13T07:17:18;8.43;;;2.53;;
54428;SDS011;40337;52.978;6.310;2023-07-13T07:19:44;6.35;;;2.50;;
54428;SDS011;40337;52.978;6.310;2023-07-13T07:22:10;5.95;;;2.25;;
54428;SDS011;40337;52.978;6.310;2023-07-13T07:24:36;6.50;;;2.45;;
54428;SDS011;40337;52.978;6.310;2023-07-13T07:27:02;7.85;;;2.60;;
54428;SDS011;40337;52.978;6.310;2023-07-13T07:29:28;21.10;;;4.38;;
54428;SDS011;40337;52.978;6.310;2023-07-13T07:31:54;5.97;;;1.98;;
54428;SDS011;40337;52.978;6.310;2023-07-13T07:34:19;3.90;;;1.95;;
54428;SDS011;40337;52.978;6.310;2023-07-13T07:36:45;6.88;;;2.45;;
54428;SDS011;40337;52.978;6.310;2023-07-13T07:39:11;7.05;;;1.85;;
54428;SDS011;40337;52.978;6.310;2023-07-13T07:41:37;5.45;;;1.98;;
54428;SDS011;40337;52.978;6.310;2023-07-13T07:44:03;6.15;;;1.80;;
54428;SDS011;40337;52.978;6.310;2023-07-13T07:46:29;5.07;;;1.80;;
54428;SDS011;40337;52.978;6.310;2023-07-13T07:48:55;5.05;;;2.05;;
54428;SDS011;40337;52.978;6.310;2023-07-13T07:51:21;7.78;;;2.35;;
54428;SDS011;40337;52.978;6.310;2023-07-13T07:53:47;5.00;;;2.10;;
54428;SDS011;40337;52.978;6.310;2023-07-13T07:56:13;7.00;;;2.55;;
54428;SDS011;40337;52.978;6.310;2023-07-13T07:58:41;6.35;;;2.45;;
54428;SDS011;40337;52.978;6.310;2023-07-13T08:01:07;6.30;;;2.30;;
54428;SDS011;40337;52.978;6.310;2023-07-13T08:03:33;7.10;;;2.60;;
54428;SDS011;40337;52.978;6.310;2023-07-13T08:05:59;6.03;;;2.38;;
54428;SDS011;40337;52.978;6.310;2023-07-13T08:08:25;5.90;;;2.58;;
54428;SDS011;40337;52.978;6.310;2023-07-13T08:10:51;7.35;;;2.78;;
54428;SDS011;40337;52.978;6.310;2023-07-13T08:13:17;6.57;;;2.88;;
54428;SDS011;40337;52.978;6.310;2023-07-13T08:15:42;7.70;;;2.38;;
54428;SDS011;40337;52.978;6.310;2023-07-13T08:18:08;6.03;;;2.30;;
54428;SDS011;40337;52.978;6.310;2023-07-13T08:20:38;6.03;;;2.78;;
54428;SDS011;40337;52.978;6.310;2023-07-13T08:23:04;7.50;;;2.85;;
54428;SDS011;40337;52.978;6.310;2023-07-13T08:25:30;10.88;;;3.60;;
54428;SDS011;40337;52.978;6.310;2023-07-13T08:27:55;8.35;;;3.50;;
54428;SDS011;40337;52.978;6.310;2023-07-13T08:30:21;10.07;;;3.47;;
54428;SDS011;40337;52.978;6.310;2023-07-13T08:32:47;7.95;;;3.00;;
54428;SDS011;40337;52.978;6.310;2023-07-13T08:35:14;6.03;;;2.40;;
54428;SDS011;40337;52.978;6.310;2023-07-13T08:37:41;5.22;;;2.10;;
54428;SDS011;40337;52.978;6.310;2023-07-13T08:40:08;5.05;;;2.20;;
54428;SDS011;40337;52.978;6.310;2023-07-13T08:42:43;5.72;;;2.30;;
54428;SDS011;40337;52.978;6.310;2023-07-13T08:50:21;4.95;;;2.22;;
54428;SDS011;40337;52.978;6.310;2023-07-13T08:52:51;5.25;;;2.30;;
54428;SDS011;40337;52.978;6.310;2023-07-13T08:55:18;6.00;;;2.72;;
54428;SDS011;40337;52.978;6.310;2023-07-13T08:57:53;5.35;;;2.58;;
54428;SDS011;40337;52.978;6.310;2023-07-13T09:00:26;6.45;;;2.65;;
54428;SDS011;40337;52.978;6.310;2023-07-13T09:03:07;4.30;;;2.38;;
54428;SDS011;40337;52.978;6.310;2023-07-13T09:05:46;7.63;;;3.10;;
54428;SDS011;40337;52.978;6.310;2023-07-13T09:14:47;5.05;;;2.40;;
54428;SDS011;40337;52.978;6.310;2023-07-13T09:17:10;6.88;;;2.85;;
54428;SDS011;40337;52.978;6.310;2023-07-13T09:19:51;8.20;;;2.92;;
54428;SDS011;40337;52.978;6.310;2023-07-13T09:22:45;5.35;;;2.67;;
54428;SDS011;40337;52.978;6.310;2023-07-13T09:28:00;6.97;;;3.20;;
54428;SDS011;40337;52.978;6.310;2023-07-13T09:33:24;6.05;;;3.20;;
54428;SDS011;40337;52.978;6.310;2023-07-13T09:35:54;6.00;;;2.80;;
54428;SDS011;40337;52.978;6.310;2023-07-13T09:38:21;5.75;;;2.63;;
54428;SDS011;40337;52.978;6.310;2023-07-13T09:44:10;4.75;;;2.95;;
54428;SDS011;40337;52.978;6.310;2023-07-13T09:46:38;7.10;;;2.92;;
54428;SDS011;40337;52.978;6.310;2023-07-13T09:49:09;5.13;;;2.80;;
54428;SDS011;40337;52.978;6.310;2023-07-13T09:51:36;5.22;;;3.00;;
54428;SDS011;40337;52.978;6.310;2023-07-13T09:54:04;4.95;;;2.67;;
54428;SDS011;40337;52.978;6.310;2023-07-13T09:56:30;6.05;;;3.03;;
54428;SDS011;40337;52.978;6.310;2023-07-13T09:58:57;4.65;;;2.50;;
54428;SDS011;40337;52.978;6.310;2023-07-13T10:01:36;4.68;;;2.60;;
54428;SDS011;40337;52.978;6.310;2023-07-13T10:04:10;5.38;;;2.72;;
54428;SDS011;40337;52.978;6.310;2023-07-13T10:06:38;6.10;;;3.00;;
54428;SDS011;40337;52.978;6.310;2023-07-13T10:09:07;5.00;;;3.20;;
54428;SDS011;40337;52.978;6.310;2023-07-13T10:11:34;4.35;;;2.88;;
54428;SDS011;40337;52.978;6.310;2023-07-13T10:14:13;6.03;;;3.50;;
54428;SDS011;40337;52.978;6.310;2023-07-13T10:16:41;5.93;;;3.35;;
54428;SDS011;40337;52.978;6.310;2023-07-13T10:19:23;6.55;;;2.58;;
54428;SDS011;40337;52.978;6.310;2023-07-13T10:22:02;6.10;;;2.30;;
54428;SDS011;40337;52.978;6.310;2023-07-13T10:24:47;8.13;;;2.40;;
54428;SDS011;40337;52.978;6.310;2023-07-13T10:27:17;5.32;;;2.30;;
54428;SDS011;40337;52.978;6.310;2023-07-13T10:29:46;4.68;;;2.10;;
54428;SDS011;40337;52.978;6.310;2023-07-13T10:32:33;6.90;;;2.10;;
54428;SDS011;40337;52.978;6.310;2023-07-13T10:34:59;5.22;;;2.13;;
54428;SDS011;40337;52.978;6.310;2023-07-13T10:37:29;7.07;;;2.20;;
54428;SDS011;40337;52.978;6.310;2023-07-13T10:39:59;5.57;;;2.03;;
54428;SDS011;40337;52.978;6.310;2023-07-13T10:42:30;6.18;;;2.50;;
54428;SDS011;40337;52.978;6.310;2023-07-13T10:45:01;6.93;;;2.50;;
54428;SDS011;40337;52.978;6.310;2023-07-13T10:47:27;5.35;;;2.70;;
54428;SDS011;40337;52.978;6.310;2023-07-13T10:49:54;4.40;;;1.98;;
54428;SDS011;40337;52.978;6.310;2023-07-13T10:52:40;3.83;;;1.88;;
54428;SDS011;40337;52.978;6.310;2023-07-13T10:55:30;4.97;;;2.30;;
54428;SDS011;40337;52.978;6.310;2023-07-13T10:57:59;4.65;;;1.90;;
54428;SDS011;40337;52.978;6.310;2023-07-13T11:00:26;4.43;;;1.70;;
54428;SDS011;40337;52.978;6.310;2023-07-13T11:02:56;6.35;;;1.90;;
54428;SDS011;40337;52.978;6.310;2023-07-13T11:07:55;5.03;;;1.88;;
54428;SDS011;40337;52.978;6.310;2023-07-13T11:11:01;4.88;;;1.70;;
54428;SDS011;40337;52.978;6.310;2023-07-13T11:18:52;4.90;;;1.70;;
54428;SDS011;40337;52.978;6.310;2023-07-13T11:21:31;5.13;;;1.70;;
54428;SDS011;40337;52.978;6.310;2023-07-13T11:24:04;8.75;;;2.20;;
54428;SDS011;40337;52.978;6.310;2023-07-13T11:31:42;3.65;;;1.60;;
54428;SDS011;40337;52.978;6.310;2023-07-13T11:34:19;4.50;;;1.60;;
54428;SDS011;40337;52.978;6.310;2023-07-13T11:36:52;4.95;;;1.88;;
54428;SDS011;40337;52.978;6.310;2023-07-13T11:39:19;4.15;;;1.60;;
54428;SDS011;40337;52.978;6.310;2023-07-13T11:41:55;5.35;;;1.80;;
54428;SDS011;40337;52.978;6.310;2023-07-13T11:44:25;20.02;;;4.03;;
54428;SDS011;40337;52.978;6.310;2023-07-13T11:47:00;7.35;;;1.83;;
54428;SDS011;40337;52.978;6.310;2023-07-13T11:49:50;5.78;;;1.80;;
54428;SDS011;40337;52.978;6.310;2023-07-13T11:52:34;7.43;;;2.20;;
54428;SDS011;40337;52.978;6.310;2023-07-13T11:55:03;15.05;;;2.63;;
54428;SDS011;40337;52.978;6.310;2023-07-13T11:57:40;7.07;;;1.95;;
54428;SDS011;40337;52.978;6.310;2023-07-13T12:00:13;6.78;;;2.00;;
54428;SDS011;40337;52.978;6.310;2023-07-13T12:02:43;6.55;;;1.80;;
54428;SDS011;40337;52.978;6.310;2023-07-13T12:05:11;10.40;;;1.95;;
54428;SDS011;40337;52.978;6.310;2023-07-13T12:07:39;6.90;;;1.75;;
54428;SDS011;40337;52.978;6.310;2023-07-13T12:12:37;7.07;;;2.03;;
54428;SDS011;40337;52.978;6.310;2023-07-13T12:15:06;7.25;;;1.95;;
54428;SDS011;40337;52.978;6.310;2023-07-13T12:17:33;20.00;;;4.13;;
54428;SDS011;40337;52.978;6.310;2023-07-13T12:20:03;6.65;;;1.92;;
54428;SDS011;40337;52.978;6.310;2023-07-13T12:22:59;32.88;;;4.18;;
54428;SDS011;40337;52.978;6.310;2023-07-13T12:25:26;8.52;;;1.92;;
54428;SDS011;40337;52.978;6.310;2023-07-13T12:27:52;9.43;;;1.90;;
54428;SDS011;40337;52.978;6.310;2023-07-13T12:30:26;5.82;;;1.70;;
54428;SDS011;40337;52.978;6.310;2023-07-13T12:33:05;23.48;;;3.20;;
54428;SDS011;40337;52.978;6.310;2023-07-13T12:35:39;3.83;;;1.52;;
54428;SDS011;40337;52.978;6.310;2023-07-13T12:38:09;5.15;;;1.52;;
54428;SDS011;40337;52.978;6.310;2023-07-13T12:40:36;4.55;;;1.63;;
54428;SDS011;40337;52.978;6.310;2023-07-13T12:43:02;5.05;;;1.33;;
54428;SDS011;40337;52.978;6.310;2023-07-13T12:45:32;4.65;;;1.50;;
54428;SDS011;40337;52.978;6.310;2023-07-13T12:47:59;4.00;;;1.80;;
54428;SDS011;40337;52.978;6.310;2023-07-13T12:50:39;8.10;;;1.90;;
54428;SDS011;40337;52.978;6.310;2023-07-13T12:53:09;5.10;;;1.50;;
54428;SDS011;40337;52.978;6.310;2023-07-13T12:55:44;7.25;;;1.60;;
54428;SDS011;40337;52.978;6.310;2023-07-13T12:58:16;5.38;;;1.50;;
54428;SDS011;40337;52.978;6.310;2023-07-13T13:00:53;18.38;;;2.63;;
54428;SDS011;40337;52.978;6.310;2023-07-13T13:08:48;15.25;;;2.60;;
54428;SDS011;40337;52.978;6.310;2023-07-13T13:11:19;3.17;;;1.17;;
54428;SDS011;40337;52.978;6.310;2023-07-13T13:13:45;5.00;;;1.48;;
54428;SDS011;40337;52.978;6.310;2023-07-13T13:16:17;17.23;;;2.35;;
54428;SDS011;40337;52.978;6.310;2023-07-13T13:18:59;8.90;;;1.88;;
54428;SDS011;40337;52.978;6.310;2023-07-13T13:21:35;2.97;;;1.35;;
54428;SDS011;40337;52.978;6.310;2023-07-13T13:24:01;9.10;;;1.75;;
54428;SDS011;40337;52.978;6.310;2023-07-13T13:26:26;7.07;;;2.17;;
54428;SDS011;40337;52.978;6.310;2023-07-13T13:28:52;2.80;;;1.38;;
54428;SDS011;40337;52.978;6.310;2023-07-13T13:31:18;8.63;;;1.80;;
54428;SDS011;40337;52.978;6.310;2023-07-13T13:33:45;13.50;;;2.00;;
54428;SDS011;40337;52.978;6.310;2023-07-13T13:36:13;8.75;;;1.92;;
54428;SDS011;40337;52.978;6.310;2023-07-13T13:38:44;10.98;;;2.22;;
54428;SDS011;40337;52.978;6.310;2023-07-13T13:41:10;6.40;;;1.70;;
54428;SDS011;40337;52.978;6.310;2023-07-13T13:43:39;6.97;;;1.70;;
54428;SDS011;40337;52.978;6.310;2023-07-13T13:46:11;3.92;;;1.58;;
54428;SDS011;40337;52.978;6.310;2023-07-13T13:48:43;8.10;;;1.65;;
54428;SDS011;40337;52.978;6.310;2023-07-13T13:51:13;5.55;;;1.70;;
54428;SDS011;40337;52.978;6.310;2023-07-13T13:53:42;6.00;;;1.85;;
54428;SDS011;40337;52.978;6.310;2023-07-13T13:56:08;3.83;;;1.48;;
54428;SDS011;40337;52.978;6.310;2023-07-13T13:58:34;16.35;;;2.42;;
54428;SDS011;40337;52.978;6.310;2023-07-13T14:01:00;9.70;;;2.10;;
54428;SDS011;40337;52.978;6.310;2023-07-13T14:03:26;5.72;;;1.67;;
54428;SDS011;40337;52.978;6.310;2023-07-13T14:05:53;3.40;;;1.58;;
54428;SDS011;40337;52.978;6.310;2023-07-13T14:08:22;22.55;;;2.92;;
54428;SDS011;40337;52.978;6.310;2023-07-13T14:10:49;3.58;;;1.40;;
54428;SDS011;40337;52.978;6.310;2023-07-13T14:13:36;8.43;;;1.88;;
54428;SDS011;40337;52.978;6.310;2023-07-13T14:16:12;7.55;;;1.67;;
54428;SDS011;40337;52.978;6.310;2023-07-13T14:18:44;7.00;;;1.65;;
54428;SDS011;40337;52.978;6.310;2023-07-13T14:21:11;5.78;;;1.70;;
54428;SDS011;40337;52.978;6.310;2023-07-13T14:23:39;5.10;;;1.65;;
54428;SDS011;40337;52.978;6.310;2023-07-13T14:26:11;5.47;;;1.63;;
54428;SDS011;40337;52.978;6.310;2023-07-13T14:28:43;15.93;;;3.28;;
54428;SDS011;40337;52.978;6.310;2023-07-13T14:31:14;6.07;;;1.77;;
54428;SDS011;40337;52.978;6.310;2023-07-13T14:33:41;5.40;;;1.77;;
54428;SDS011;40337;52.978;6.310;2023-07-13T14:39:00;11.63;;;2.30;;
54428;SDS011;40337;52.978;6.310;2023-07-13T14:41:34;6.90;;;1.70;;
54428;SDS011;40337;52.978;6.310;2023-07-13T14:43:59;5.40;;;1.70;;
54428;SDS011;40337;52.978;6.310;2023-07-13T14:46:30;7.07;;;1.83;;
54428;SDS011;40337;52.978;6.310;2023-07-13T14:49:06;6.22;;;1.88;;
54428;SDS011;40337;52.978;6.310;2023-07-13T14:51:40;5.93;;;1.73;;
54428;SDS011;40337;52.978;6.310;2023-07-13T14:54:07;12.25;;;2.03;;
54428;SDS011;40337;52.978;6.310;2023-07-13T14:56:34;5.15;;;1.67;;
54428;SDS011;40337;52.978;6.310;2023-07-13T14:59:00;7.75;;;2.10;;
54428;SDS011;40337;52.978;6.310;2023-07-13T15:01:25;4.95;;;1.63;;
54428;SDS011;40337;52.978;6.310;2023-07-13T15:03:52;4.95;;;1.63;;
54428;SDS011;40337;52.978;6.310;2023-07-13T15:06:18;4.63;;;1.80;;
54428;SDS011;40337;52.978;6.310;2023-07-13T15:08:44;6.00;;;1.70;;
54428;SDS011;40337;52.978;6.310;2023-07-13T15:11:10;4.65;;;2.00;;
54428;SDS011;40337;52.978;6.310;2023-07-13T15:13:39;9.27;;;1.75;;
54428;SDS011;40337;52.978;6.310;2023-07-13T15:16:16;4.88;;;1.60;;
54428;SDS011;40337;52.978;6.310;2023-07-13T15:18:43;6.28;;;1.95;;
54428;SDS011;40337;52.978;6.310;2023-07-13T15:21:11;4.45;;;1.50;;
54428;SDS011;40337;52.978;6.310;2023-07-13T15:23:42;5.00;;;1.80;;
54428;SDS011;40337;52.978;6.310;2023-07-13T15:26:11;3.92;;;1.73;;
54428;SDS011;40337;52.978;6.310;2023-07-13T15:28:40;5.68;;;2.17;;
54428;SDS011;40337;52.978;6.310;2023-07-13T15:31:20;4.85;;;1.52;;
54428;SDS011;40337;52.978;6.310;2023-07-13T15:33:48;4.35;;;1.75;;
54428;SDS011;40337;52.978;6.310;2023-07-13T15:36:19;3.78;;;1.80;;